Time;durP1;ratioP1;P1;durP2;ratioP2;P2;SDS_P1;SDS_P2;PMS_P1;PMS_P2;Temp;Humidity;BMP_temperature;BMP_pressure;BME280_temperature;BME280_humidity;BME280_pressure;Samples;Min_cycle;Max_cycle;Signal;HPM_P1;HPM_P2
2024/04/05 00:01:28;;;;;;;9.18;3.08;;;;;;;11.46;100.00;100163.56;7389672;19;20342;-70
2024/04/05 00:03:56;;;;;;;7.30;3.10;;;;;;;11.52;100.00;100164.06;7390866;19;20011;-70
2024/04/05 00:06:22;;;;;;;6.80;2.85;;;;;;;11.44;100.00;100141.56;7385412;19;20002;-72
2024/04/05 00:08:48;;;;;;;10.40;3.65;;;;;;;11.48;100.00;100159.03;7388947;19;20013;-72
2024/04/05 00:11:14;;;;;;;6.85;2.97;;;;;;;11.52;100.00;100172.03;7364064;19;20142;-71
2024/04/05 00:13:39;;;;;;;7.03;3.10;;;;;;;11.42;100.00;100154.06;7388075;19;20041;-71
2024/04/05 00:16:06;;;;;;;8.75;3.00;;;;;;;11.49;100.00;100166.88;7364639;19;20031;-71
2024/04/05 00:18:34;;;;;;;7.88;3.10;;;;;;;11.38;100.00;100148.06;7389375;19;20063;-71
2024/04/05 00:21:04;;;;;;;11.35;3.20;;;;;;;11.45;100.00;100168.00;7389179;19;20039;-72
2024/04/05 00:23:31;;;;;;;6.67;3.23;;;;;;;11.29;100.00;100137.97;7389737;19;20039;-71
2024/04/05 00:26:04;;;;;;;8.35;3.22;;;;;;;11.22;100.00;100118.00;7386139;19;20014;-70
2024/04/05 00:28:31;;;;;;;7.25;2.92;;;;;;;11.23;100.00;100128.53;7388570;19;20022;-71
2024/04/05 00:30:58;;;;;;;7.40;3.17;;;;;;;11.41;100.00;100153.19;7388650;19;20044;-71
2024/04/05 00:33:24;;;;;;;8.48;3.17;;;;;;;11.38;100.00;100137.44;7388918;19;20046;-71
2024/04/05 00:35:56;;;;;;;9.57;3.03;;;;;;;11.56;100.00;100162.13;7387301;19;20056;-70
2024/04/05 00:38:23;;;;;;;8.65;2.85;;;;;;;11.60;100.00;100158.38;7386467;19;20015;-72
2024/04/05 00:40:50;;;;;;;8.02;2.85;;;;;;;11.60;100.00;100158.38;7385681;19;20007;-71
2024/04/05 00:43:16;;;;;;;8.45;2.83;;;;;;;11.37;100.00;100118.97;7388280;19;20002;-71
2024/04/05 00:45:46;;;;;;;11.50;3.25;;;;;;;11.59;100.00;100161.94;7383533;19;20014;-70
2024/04/05 00:48:18;;;;;;;11.90;3.20;;;;;;;11.39;100.00;100133.88;7387168;19;20003;-71
2024/04/05 00:50:46;;;;;;;8.00;2.95;;;;;;;11.55;100.00;100160.41;7389651;19;20015;-71
2024/04/05 00:53:38;;;;;;;7.20;2.88;;;;;;;11.55;100.00;100148.00;7386159;19;20010;-71
2024/04/05 00:56:04;;;;;;;10.98;3.28;;;;;;;11.53;100.00;100139.25;7383634;19;20633;-71
2024/04/05 00:58:31;;;;;;;6.93;2.75;;;;;;;11.66;100.00;100151.84;7386128;19;20025;-71
2024/04/05 01:00:57;;;;;;;11.75;3.50;;;;;;;11.52;100.00;100118.13;7386681;19;20078;-72
2024/04/05 01:03:23;;;;;;;9.15;3.00;;;;;;;11.57;100.00;100126.69;7387870;19;20011;-71
2024/04/05 01:05:49;;;;;;;6.45;2.55;;;;;;;11.75;100.00;100148.69;7387449;19;20038;-71
2024/04/05 01:08:15;;;;;;;10.50;2.72;;;;;;;11.60;100.00;100132.69;7385314;19;20014;-71
2024/04/05 01:10:41;;;;;;;7.85;2.70;;;;;;;11.75;100.00;100152.22;7385940;19;20325;-71
2024/04/05 01:13:09;;;;;;;8.32;2.88;;;;;;;11.67;100.00;100146.47;7386634;19;20425;-72
2024/04/05 01:15:35;;;;;;;8.65;2.80;;;;;;;11.67;100.00;100135.84;7386813;19;20018;-71
2024/04/05 01:18:04;;;;;;;10.35;2.92;;;;;;;11.74;100.00;100154.94;7384601;19;20017;-72
2024/04/05 01:20:31;;;;;;;8.02;2.95;;;;;;;11.53;100.00;100117.19;7387265;19;20006;-72
2024/04/05 01:23:04;;;;;;;9.15;3.03;;;;;;;11.70;100.00;100156.03;7387045;19;20019;-71
2024/04/05 01:25:31;;;;;;;5.72;2.65;;;;;;;11.63;100.00;100141.44;7362474;19;20481;-72
2024/04/05 01:27:57;;;;;;;7.32;2.72;;;;;;;11.53;100.00;100131.31;7384735;19;20019;-73
2024/04/05 01:30:24;;;;;;;7.88;2.95;;;;;;;11.59;100.00;100136.28;7387154;19;20019;-71
2024/04/05 01:32:53;;;;;;;6.47;2.97;;;;;;;11.45;100.00;100114.97;7392368;19;20018;-71
2024/04/05 01:35:18;;;;;;;6.93;2.88;;;;;;;11.55;100.00;100128.56;7390167;19;20011;-71
2024/04/05 01:37:44;;;;;;;7.30;2.65;;;;;;;11.46;100.00;100118.50;7382992;19;20006;-72
2024/04/05 01:40:10;;;;;;;12.50;3.15;;;;;;;11.48;100.00;100129.88;7384803;19;20018;-71
2024/04/05 01:42:36;;;;;;;9.95;2.88;;;;;;;11.40;100.00;100118.81;7386519;19;20049;-71
2024/04/05 01:45:04;;;;;;;11.32;3.63;;;;;;;11.41;100.00;100118.72;7386457;19;20034;-72
2024/04/05 01:47:30;;;;;;;5.88;2.50;;;;;;;11.44;100.00;100126.53;7384059;19;20780;-72
2024/04/05 01:49:55;;;;;;;8.13;2.80;;;;;;;11.45;100.00;100128.25;7386889;19;20018;-71
2024/04/05 01:52:21;;;;;;;8.63;3.03;;;;;;;11.46;100.00;100129.09;7384462;19;20039;-71
2024/04/05 01:54:48;;;;;;;8.07;3.08;;;;;;;11.50;100.00;100139.44;7385194;19;20007;-71
2024/04/05 01:57:14;;;;;;;7.75;3.00;;;;;;;11.52;100.00;100136.69;7387251;19;20015;-71
2024/04/05 01:59:45;;;;;;;8.93;3.08;;;;;;;11.55;100.00;100132.09;7386897;19;20500;-72
2024/04/05 02:02:11;;;;;;;10.05;2.95;;;;;;;11.44;100.00;100105.31;7383110;19;20011;-71
2024/04/05 02:04:37;;;;;;;5.97;2.60;;;;;;;11.59;100.00;100119.53;7386284;19;20021;-72
2024/04/05 02:07:02;;;;;;;8.75;2.70;;;;;;;11.64;100.00;100129.88;7379161;19;20074;-70
2024/04/05 02:09:28;;;;;;;8.45;2.50;;;;;;;11.63;100.00;100126.38;7387801;19;20753;-70
2024/04/05 02:11:54;;;;;;;6.60;2.60;;;;;;;11.63;100.00;100130.81;7386284;19;20015;-71
2024/04/05 02:14:19;;;;;;;9.30;2.53;;;;;;;11.69;100.00;100125.16;7384548;19;20089;-72
2024/04/05 02:16:45;;;;;;;10.10;3.33;;;;;;;11.73;100.00;100143.47;7382240;19;20014;-71
2024/04/05 02:19:10;;;;;;;9.82;2.92;;;;;;;11.65;100.00;100113.03;7386874;19;20010;-71
2024/04/05 02:21:36;;;;;;;6.43;2.50;;;;;;;11.70;100.00;100132.19;7383822;19;20011;-71
2024/04/05 02:24:02;;;;;;;6.90;2.30;;;;;;;11.67;100.00;100124.38;7384578;19;20010;-70
2024/04/05 02:26:28;;;;;;;6.20;2.33;;;;;;;11.58;100.00;100112.50;7381757;19;20007;-71
2024/04/05 02:28:54;;;;;;;6.57;2.40;;;;;;;11.58;100.00;100115.16;7383858;19;20011;-71
2024/04/05 02:31:19;;;;;;;11.07;3.20;;;;;;;11.57;100.00;100110.78;7384661;19;20447;-71
2024/04/05 02:33:45;;;;;;;8.77;2.83;;;;;;;11.46;100.00;100098.13;7384997;19;20010;-70
2024/04/05 02:36:10;;;;;;;8.13;2.90;;;;;;;11.63;100.00;100130.81;7381755;19;20014;-70
2024/04/05 02:38:39;;;;;;;10.13;2.85;;;;;;;11.69;100.00;100152.53;7382690;19;20106;-72
2024/04/05 02:41:07;;;;;;;9.65;2.53;;;;;;;11.62;100.00;100134.41;7382788;19;20014;-71
2024/04/05 02:43:33;;;;;;;7.78;2.60;;;;;;;11.66;100.00;100146.53;7384550;19;20018;-70
2024/04/05 02:45:59;;;;;;;9.80;2.92;;;;;;;11.58;100.00;100139.88;7386214;19;20014;-71
2024/04/05 02:48:25;;;;;;;8.15;2.50;;;;;;;11.52;100.00;100132.25;7381511;19;20007;-70
2024/04/05 02:50:50;;;;;;;9.02;2.40;;;;;;;11.63;100.00;100146.72;7389906;19;20361;-70
2024/04/05 02:53:16;;;;;;;11.10;2.97;;;;;;;11.39;100.00;100106.50;7390895;19;20009;-71
2024/04/05 02:55:41;;;;;;;9.30;2.70;;;;;;;11.49;100.00;100128.94;7392850;19;20689;-71
2024/04/05 02:58:07;;;;;;;5.22;2.45;;;;;;;11.53;100.00;100139.25;7385383;19;20023;-70
2024/04/05 03:00:36;;;;;;;9.77;3.13;;;;;;;11.63;100.00;100157.34;7391390;19;20018;-71
2024/04/05 03:03:02;;;;;;;7.25;3.00;;;;;;;11.43;100.00;100127.47;7392172;19;20014;-72
2024/04/05 03:05:28;;;;;;;6.07;2.40;;;;;;;11.55;100.00;100160.41;7394312;19;20336;-71
2024/04/05 03:07:53;;;;;;;10.15;2.80;;;;;;;11.38;100.00;100118.91;7386843;19;20019;-71
2024/04/05 03:10:19;;;;;;;7.10;2.67;;;;;;;11.45;100.00;100130.88;7390445;19;20047;-74
2024/04/05 03:12:45;;;;;;;9.52;2.83;;;;;;;11.49;100.00;100158.09;7389654;19;20014;-71
2024/04/05 03:15:10;;;;;;;8.05;2.80;;;;;;;11.41;100.00;100147.91;7391629;19;20026;-71
2024/04/05 03:17:36;;;;;;;7.80;3.20;;;;;;;11.49;100.00;100156.28;7387421;19;20105;-71
2024/04/05 03:20:01;;;;;;;8.75;2.60;;;;;;;11.48;100.00;100161.69;7390815;19;20011;-72
2024/04/05 03:22:27;;;;;;;11.13;3.20;;;;;;;11.17;100.00;100122.72;7392524;19;20014;-71
2024/04/05 03:24:53;;;;;;;7.95;2.78;;;;;;;11.35;100.00;100158.81;7391379;19;20023;-71
2024/04/05 03:27:19;;;;;;;6.90;2.95;;;;;;;11.32;100.00;100164.31;7386957;19;20015;-71
2024/04/05 03:29:44;;;;;;;9.55;3.17;;;;;;;11.35;100.00;100169.44;7392752;19;20010;-71
2024/04/05 03:32:10;;;;;;;7.88;3.05;;;;;;;11.33;100.00;100162.53;7387802;19;20023;-71
2024/04/05 03:34:40;;;;;;;8.63;2.97;;;;;;;11.37;100.00;100162.25;7392121;19;20007;-70
2024/04/05 03:37:05;;;;;;;10.27;3.13;;;;;;;11.39;100.00;100186.03;7388061;19;20010;-71
2024/04/05 03:39:32;;;;;;;6.07;2.22;;;;;;;11.21;100.00;100156.91;7390637;19;20023;-70
2024/04/05 03:41:57;;;;;;;9.63;2.80;;;;;;;11.25;100.00;100166.41;7390401;19;20523;-71
2024/04/05 03:44:23;;;;;;;8.07;2.88;;;;;;;11.21;100.00;100167.50;7388573;19;20011;-70
2024/04/05 03:46:50;;;;;;;10.73;3.70;;;;;;;11.21;100.00;100167.50;7387779;19;20336;-71
2024/04/05 03:49:16;;;;;;;8.18;3.20;;;;;;;11.00;100.00;100139.53;7389574;19;20018;-72
2024/04/05 03:51:41;;;;;;;4.80;2.88;;;;;;;11.21;100.00;100161.34;7389906;19;20074;-71
2024/04/05 03:54:07;;;;;;;10.20;3.28;;;;;;;10.93;100.00;100124.00;7390426;19;20498;-71
2024/04/05 03:56:32;;;;;;;8.60;3.00;;;;;;;10.95;100.00;100124.78;7385182;19;20361;-71
2024/04/05 03:58:58;;;;;;;11.82;4.07;;;;;;;11.09;100.00;100151.41;7387584;19;20015;-71
2024/04/05 04:01:24;;;;;;;7.28;3.25;;;;;;;10.99;100.00;100136.94;7386784;19;20010;-72
2024/04/05 04:03:50;;;;;;;7.50;3.70;;;;;;;10.90;100.00;100139.13;7380432;19;20134;-71
2024/04/05 04:06:15;;;;;;;8.77;2.92;;;;;;;10.99;100.00;100152.84;7389614;19;20018;-71
2024/04/05 04:08:41;;;;;;;7.38;2.85;;;;;;;10.66;100.00;100092.75;7386106;19;20018;-70
2024/04/05 04:11:06;;;;;;;7.28;3.10;;;;;;;10.89;100.00;100133.91;7387376;19;20036;-71
2024/04/05 04:13:32;;;;;;;9.20;2.92;;;;;;;10.96;100.00;100159.16;7366024;19;20015;-71
2024/04/05 04:15:58;;;;;;;7.28;3.50;;;;;;;10.81;100.00;100144.06;7388610;19;20019;-71
2024/04/05 04:18:23;;;;;;;8.32;3.30;;;;;;;10.97;100.00;100168.81;7386986;19;20035;-71
2024/04/05 04:20:50;;;;;;;10.93;3.30;;;;;;;10.96;100.00;100172.41;7388733;19;20010;-70
2024/04/05 04:23:15;;;;;;;6.95;3.03;;;;;;;10.81;100.00;100147.56;7390246;19;20353;-71
2024/04/05 04:25:41;;;;;;;8.35;3.45;;;;;;;10.96;100.00;100163.59;7385657;19;20006;-71
2024/04/05 04:28:09;;;;;;;10.52;3.83;;;;;;;10.95;100.00;100154.78;7385031;19;20030;-71
2024/04/05 04:30:35;;;;;;;10.27;3.50;;;;;;;10.95;100.00;100149.50;7387661;19;20022;-71
2024/04/05 04:33:00;;;;;;;9.05;3.65;;;;;;;11.14;100.00;100168.78;7388438;19;20447;-71
2024/04/05 04:35:26;;;;;;;9.80;3.78;;;;;;;11.05;100.00;100161.31;7388241;19;20015;-71
2024/04/05 04:37:54;;;;;;;8.95;3.33;;;;;;;11.02;100.00;100155.34;7384558;19;20023;-70
2024/04/05 04:40:20;;;;;;;7.28;3.88;;;;;;;11.04;100.00;100164.91;7387172;19;20026;-71
2024/04/05 04:42:46;;;;;;;11.75;3.58;;;;;;;10.92;100.00;100154.09;7389199;19;20702;-72
2024/04/05 04:45:11;;;;;;;9.13;3.50;;;;;;;11.15;100.00;100196.16;7389902;19;20074;-71
2024/04/05 04:47:37;;;;;;;12.07;4.32;;;;;;;11.15;100.00;100193.50;7386843;19;20046;-72
2024/04/05 04:50:04;;;;;;;10.07;3.63;;;;;;;11.11;100.00;100171.59;7386421;19;20089;-71
2024/04/05 04:52:30;;;;;;;10.18;3.28;;;;;;;11.07;100.00;100164.75;7388046;19;20030;-71
2024/04/05 04:54:59;;;;;;;12.95;4.10;;;;;;;11.30;100.00;100198.00;7389129;19;20018;-71
2024/04/05 04:57:24;;;;;;;9.65;3.90;;;;;;;11.26;100.00;100177.88;7385327;19;20006;-70
2024/04/05 04:59:51;;;;;;;10.85;4.10;;;;;;;11.24;100.00;100171.81;7385393;19;20034;-71
2024/04/05 05:02:17;;;;;;;10.65;3.88;;;;;;;11.36;100.00;100186.19;7386983;19;20610;-71
2024/04/05 05:04:44;;;;;;;12.35;3.95;;;;;;;11.30;100.00;100173.28;7387418;19;20010;-72
2024/04/05 05:07:09;;;;;;;10.57;3.92;;;;;;;11.39;100.00;100197.50;7384639;19;20014;-71
2024/04/05 05:09:35;;;;;;;7.68;3.60;;;;;;;11.29;100.00;100172.44;7385063;19;20464;-71
2024/04/05 05:12:01;;;;;;;10.25;3.83;;;;;;;11.14;100.00;100139.66;7384906;19;20019;-71
2024/04/05 05:14:27;;;;;;;11.20;3.72;;;;;;;11.44;100.00;100184.00;7386167;19;20352;-71
2024/04/05 05:16:53;;;;;;;11.07;4.10;;;;;;;11.50;100.00;100189.81;7388160;19;20487;-71
2024/04/05 05:19:18;;;;;;;8.38;3.53;;;;;;;11.48;100.00;100178.47;7383584;19;20084;-70
2024/04/05 05:21:45;;;;;;;11.23;4.30;;;;;;;11.53;100.00;100180.84;7388318;19;20446;-70
2024/04/05 05:24:11;;;;;;;8.93;3.88;;;;;;;11.58;100.00;100184.97;7388004;19;20010;-71
2024/04/05 05:26:36;;;;;;;13.35;3.67;;;;;;;11.53;100.00;100170.22;7390016;19;20014;-70
2024/04/05 05:29:02;;;;;;;9.75;4.05;;;;;;;11.53;100.00;100167.56;7383814;19;20107;-71
2024/04/05 05:31:28;;;;;;;8.18;3.88;;;;;;;11.60;100.00;100180.44;7386215;19;20002;-72
2024/04/05 05:33:53;;;;;;;7.50;3.42;;;;;;;11.56;100.00;100157.66;7388132;19;20030;-71
2024/04/05 05:36:19;;;;;;;11.18;4.15;;;;;;;11.74;100.00;100177.03;7386499;19;20038;-72
2024/04/05 05:38:44;;;;;;;10.45;3.97;;;;;;;11.83;100.00;100178.34;7381771;19;20014;-72
2024/04/05 05:41:10;;;;;;;8.63;3.70;;;;;;;11.84;100.00;100166.78;7385175;19;20024;-71
2024/04/05 05:43:36;;;;;;;8.93;3.53;;;;;;;11.91;100.00;100174.31;7383698;19;20015;-71
2024/04/05 05:46:02;;;;;;;11.35;4.00;;;;;;;11.98;100.00;100168.66;7386581;19;20011;-71
2024/04/05 05:48:28;;;;;;;10.73;4.10;;;;;;;12.09;100.00;100177.75;7382342;19;20013;-71
2024/04/05 05:50:53;;;;;;;9.50;3.85;;;;;;;12.15;100.00;100189.78;7384450;19;20018;-72
2024/04/05 05:53:19;;;;;;;9.20;3.58;;;;;;;12.03;100.00;100172.78;7384716;19;20014;-71
2024/04/05 05:55:52;;;;;;;6.78;3.13;;;;;;;12.15;100.00;100181.84;7386001;19;20677;-71
2024/04/05 05:58:17;;;;;;;7.68;4.03;;;;;;;12.01;100.00;100156.06;7379255;19;20368;-72
2024/04/05 06:00:44;;;;;;;7.43;3.42;;;;;;;12.09;100.00;100169.78;7385568;19;20015;-71
2024/04/05 06:03:09;;;;;;;8.23;3.90;;;;;;;12.18;100.00;100176.34;7384694;19;20039;-71
2024/04/05 06:05:36;;;;;;;7.03;4.07;;;;;;;12.22;100.00;100193.81;7386140;19;20015;-71
2024/04/05 06:08:02;;;;;;;13.93;4.28;;;;;;;12.18;100.00;100190.47;7381473;19;20113;-71
2024/04/05 06:10:28;;;;;;;10.27;3.65;;;;;;;12.08;100.00;100164.56;7382634;19;20034;-71
2024/04/05 06:12:54;;;;;;;6.60;3.92;;;;;;;12.18;100.00;100185.19;7384565;19;20369;-72
2024/04/05 06:15:19;;;;;;;8.32;3.92;;;;;;;12.16;100.00;100172.94;7385166;19;20022;-71
2024/04/05 06:17:46;;;;;;;10.60;4.38;;;;;;;12.13;100.00;100184.56;7382930;19;20070;-71
2024/04/05 06:20:15;;;;;;;10.77;5.10;;;;;;;12.26;100.00;100198.03;7382220;19;20022;-71
2024/04/05 06:22:41;;;;;;;11.32;4.53;;;;;;;12.20;100.00;100175.31;7385421;19;20486;-71
2024/04/05 06:25:08;;;;;;;9.40;4.30;;;;;;;12.36;100.00;100201.84;7390253;19;20015;-71
2024/04/05 06:27:36;;;;;;;14.40;5.22;;;;;;;12.24;100.00;100190.16;7390347;19;20550;-72
2024/04/05 06:30:03;;;;;;;11.90;4.50;;;;;;;12.35;100.00;100201.94;7388066;19;20026;-71
2024/04/05 06:32:30;;;;;;;11.02;4.88;;;;;;;12.39;100.00;100214.97;7390726;19;20007;-71
2024/04/05 06:34:56;;;;;;;9.10;5.13;;;;;;;12.34;100.00;100209.06;7389261;19;20011;-72
2024/04/05 06:37:22;;;;;;;11.45;5.22;;;;;;;12.30;100.00;100197.75;7386727;19;20345;-74
2024/04/05 06:39:52;;;;;;;14.30;5.55;;;;;;;12.38;100.00;100220.34;7385976;19;20018;-72
2024/04/05 06:42:18;;;;;;;12.77;5.68;;;;;;;12.41;100.00;100214.88;7388888;19;20014;-71
2024/04/05 06:44:43;;;;;;;16.33;5.78;;;;;;;12.41;100.00;100210.44;7386549;19;20712;-71
2024/04/05 06:47:10;;;;;;;11.35;5.47;;;;;;;12.36;100.00;100185.94;7389309;19;20010;-72
2024/04/05 06:49:37;;;;;;;15.95;5.25;;;;;;;12.54;100.00;100203.47;7384119;19;20015;-71
2024/04/05 06:52:05;;;;;;;11.95;5.60;;;;;;;12.66;100.00;100196.56;7387013;19;20470;-72
2024/04/05 06:54:39;;;;;;;10.43;5.07;;;;;;;12.84;100.00;100191.97;7389164;19;20010;-71
2024/04/05 06:57:05;;;;;;;12.80;5.15;;;;;;;12.96;100.00;100175.28;7392075;19;20439;-71
2024/04/05 06:59:33;;;;;;;11.52;4.90;;;;;;;13.27;100.00;100180.47;7350410;19;20007;-71
2024/04/05 07:01:58;;;;;;;10.50;4.55;;;;;;;13.39;100.00;100173.53;7389758;19;20371;-71
2024/04/05 07:04:26;;;;;;;13.07;5.50;;;;;;;13.50;100.00;100178.22;7354126;19;20118;-71
2024/04/05 07:06:55;;;;;;;9.25;4.38;;;;;;;13.52;100.00;100155.88;7355558;19;21324;-71
2024/04/05 07:09:22;;;;;;;10.48;4.78;;;;;;;13.62;100.00;100159.66;7383743;19;20018;-71
2024/04/05 07:11:49;;;;;;;12.80;5.30;;;;;;;13.68;100.00;100161.09;7385290;19;20017;-72
2024/04/05 07:14:17;;;;;;;11.65;4.78;;;;;;;13.93;100.00;100184.31;7387115;19;20368;-72
2024/04/05 07:16:44;;;;;;;13.55;5.38;;;;;;;13.85;100.00;100160.03;7391612;19;20014;-72
2024/04/05 07:19:10;;;;;;;10.93;4.85;;;;;;;13.95;100.00;100167.31;7385692;19;20432;-72
2024/04/05 07:21:37;;;;;;;12.02;5.03;;;;;;;14.00;100.00;100161.69;7384034;19;20015;-72
2024/04/05 07:24:04;;;;;;;11.95;5.25;;;;;;;14.18;100.00;100167.59;7387122;19;20007;-72
2024/04/05 07:26:30;;;;;;;10.80;4.90;;;;;;;14.47;100.00;100185.25;7385015;19;20006;-72
2024/04/05 07:28:56;;;;;;;10.05;5.15;;;;;;;14.63;100.00;100183.28;7378179;19;20603;-72
2024/04/05 07:31:22;;;;;;;9.32;4.60;;;;;;;14.45;100.00;100149.00;7387225;19;20014;-75
2024/04/05 07:33:47;;;;;;;11.18;4.70;;;;;;;14.48;100.00;100152.28;7389054;19;20022;-72
2024/04/05 07:36:16;;;;;;;11.45;4.50;;;;;;;14.49;100.00;100150.47;7387896;19;20381;-71
2024/04/05 07:38:42;;;;;;;10.57;4.20;;;;;;;14.60;100.00;100154.16;7383619;19;20348;-74
2024/04/05 07:41:08;;;;;;;11.93;4.70;;;;;;;14.57;100.00;100110.88;7384532;19;20086;-72
2024/04/05 07:43:34;;;;;;;10.85;5.07;;;;;;;14.89;100.00;100144.19;7388350;19;20015;-72
2024/04/05 07:46:00;;;;;;;8.80;4.07;;;;;;;14.93;100.00;100108.34;7383684;19;20022;-73
2024/04/05 07:48:25;;;;;;;12.23;5.00;;;;;;;15.00;100.00;100077.63;7384264;19;20006;-72
2024/04/05 07:50:53;;;;;;;11.30;4.40;;;;;;;15.36;100.00;100132.00;7385024;19;20577;-73
2024/04/05 07:53:19;;;;;;;11.43;5.30;;;;;;;15.51;100.00;100133.59;7387455;19;20104;-73
2024/04/05 07:55:45;;;;;;;11.13;4.60;;;;;;;15.46;100.00;100127.72;7388578;19;20388;-72
2024/04/05 07:58:14;;;;;;;9.32;3.65;;;;;;;15.54;100.00;100133.38;7385837;19;20035;-71
2024/04/05 08:00:40;;;;;;;8.93;4.25;;;;;;;15.75;100.00;100150.53;7361255;19;20577;-72
2024/04/05 08:03:06;;;;;;;11.30;3.78;;;;;;;15.72;100.00;100134.75;7388041;19;20010;-72
2024/04/05 08:05:34;;;;;;;7.15;3.60;;;;;;;15.81;100.00;100157.25;7386826;19;20025;-72
2024/04/05 08:08:00;;;;;;;11.13;3.92;;;;;;;15.79;100.00;100138.66;7388422;19;20599;-73
2024/04/05 08:10:26;;;;;;;9.68;3.60;;;;;;;15.77;100.00;100126.38;7387310;19;20250;-73
2024/04/05 08:12:52;;;;;;;8.52;3.30;;;;;;;15.95;100.00;100137.53;7387955;19;20321;-72
2024/04/05 08:15:18;;;;;;;12.15;3.70;;;;;;;15.83;100.00;100122.44;7385429;19;20014;-72
2024/04/05 08:17:43;;;;;;;9.27;3.15;;;;;;;15.72;100.00;100123.22;7378684;19;20020;-72
2024/04/05 08:20:09;;;;;;;13.68;3.28;;;;;;;15.87;100.00;100142.63;7378556;19;20085;-72
2024/04/05 08:22:34;;;;;;;10.88;3.10;;;;;;;16.00;100.00;100154.94;7384034;19;20082;-72
2024/04/05 08:25:02;;;;;;;10.55;2.92;;;;;;;16.35;100.00;100157.69;7387695;19;20015;-72
2024/04/05 08:27:30;;;;;;;9.52;3.10;;;;;;;16.29;100.00;100106.53;7387832;19;20015;-72
2024/04/05 08:29:56;;;;;;;10.48;3.53;;;;;;;16.65;100.00;100143.03;7384845;19;20405;-73
2024/04/05 08:32:22;;;;;;;12.52;2.95;;;;;;;16.58;100.00;100115.00;7386350;19;20065;-72
2024/04/05 08:34:48;;;;;;;8.45;3.05;;;;;;;16.93;100.00;100139.06;7388941;19;19998;-73
2024/04/05 08:37:13;;;;;;;14.15;2.30;;;;;;;17.15;100.00;100123.06;7390687;19;20018;-76
2024/04/05 08:39:39;;;;;;;6.80;1.92;;;;;;;17.41;100.00;100115.66;7391279;19;20031;-76
2024/04/05 08:42:12;;;;;;;8.13;2.38;;;;;;;17.76;100.00;100118.22;7387915;19;20007;-73
2024/04/05 08:44:44;;;;;;;7.60;2.03;;;;;;;18.07;100.00;100069.16;7374699;19;20022;-75
2024/04/05 08:47:10;;;;;;;7.88;2.17;;;;;;;18.75;100.00;100078.59;7390456;19;20007;-78
2024/04/05 08:49:37;;;;;;;5.53;2.05;;;;;;;19.17;100.00;100098.19;7369374;19;20018;-74
2024/04/05 08:52:09;;;;;;;7.45;1.38;;;;;;;19.19;100.00;100087.31;7389517;19;20430;-79
2024/04/05 08:54:35;;;;;;;6.63;1.80;;;;;;;19.16;100.00;100101.84;7393957;19;20017;-77
2024/04/05 08:57:03;;;;;;;7.10;2.25;;;;;;;19.11;100.00;100085.28;7390509;19;20069;-78
2024/04/05 08:59:29;;;;;;;6.45;1.98;;;;;;;18.96;100.00;100048.22;7386116;19;20015;-77
2024/04/05 09:01:58;;;;;;;5.68;1.38;;;;;;;19.01;100.00;100052.19;7383700;19;20074;-77
2024/04/05 09:04:28;;;;;;;4.93;1.33;;;;;;;19.15;100.00;100083.19;7385193;19;20018;-75
2024/04/05 09:06:54;;;;;;;3.67;1.45;;;;;;;19.13;100.00;100069.91;7367043;19;20010;-74
2024/04/05 09:09:46;;;;;;;5.68;1.50;;;;;;;19.15;100.00;100069.78;7385518;19;20007;-75
2024/04/05 09:12:21;;;;;;;6.57;1.45;;;;;;;19.21;100.00;100069.22;7385393;19;20021;-75
2024/04/05 09:14:59;;;;;;;4.72;1.30;;;;;;;19.38;100.00;100087.38;7387585;19;20027;-76
2024/04/05 09:17:25;;;;;;;5.63;1.73;;;;;;;19.37;100.00;100048.09;7393701;19;20006;-76
2024/04/05 09:20:06;;;;;;;7.85;1.65;;;;;;;19.39;100.00;100037.22;7419684;19;20047;-77
2024/04/05 09:22:33;;;;;;;5.75;1.30;;;;;;;18.79;98.63;99927.13;7414526;19;20066;-76
2024/04/05 09:25:03;;;;;;;4.72;1.30;;;;;;;19.69;96.55;100065.88;7410772;19;20014;-75
2024/04/05 09:27:28;;;;;;;9.48;1.55;;;;;;;19.80;95.85;100076.53;7410514;19;20038;-74
2024/04/05 09:30:04;;;;;;;3.13;1.20;;;;;;;19.50;94.72;100000.41;7411120;19;20029;-76
2024/04/05 09:32:31;;;;;;;5.82;1.30;;;;;;;19.44;90.51;99951.72;7410287;19;20023;-74
2024/04/05 09:34:57;;;;;;;6.22;1.10;;;;;;;19.33;85.53;99914.28;7410308;19;20157;-77
2024/04/05 09:37:28;;;;;;;4.82;1.40;;;;;;;20.02;84.64;100044.00;7408627;19;20026;-76
2024/04/05 09:39:53;;;;;;;4.47;1.17;;;;;;;19.95;80.60;100016.84;7398657;19;20014;-75
2024/04/05 09:42:22;;;;;;;4.57;1.35;;;;;;;19.57;79.93;99945.13;7378616;19;20011;-75
2024/04/05 09:44:59;;;;;;;2.75;1.00;;;;;;;20.10;77.67;100005.69;7407040;19;20010;-77
2024/04/05 09:47:26;;;;;;;5.15;1.27;;;;;;;20.03;77.10;99983.03;7404767;19;20021;-76
2024/04/05 09:49:52;;;;;;;5.15;1.40;;;;;;;20.38;74.22;100047.84;7396127;19;20022;-76
2024/04/05 09:52:24;;;;;;;4.35;1.42;;;;;;;19.94;74.43;99958.72;7396863;19;20054;-78
2024/04/05 09:55:00;;;;;;;4.00;1.27;;;;;;;19.93;72.84;99924.78;7404240;19;20014;-75
2024/04/05 09:57:27;;;;;;;3.22;1.25;;;;;;;19.98;72.41;99953.06;7404944;19;20006;-77
2024/04/05 09:59:55;;;;;;;3.53;1.30;;;;;;;20.49;71.98;100015.41;7394205;19;20427;-76
2024/04/05 10:02:22;;;;;;;3.00;1.30;;;;;;;20.78;69.99;100023.41;7397483;19;20010;-75
2024/04/05 10:04:48;;;;;;;4.15;1.42;;;;;;;20.43;70.96;99959.53;7402872;19;20033;-80
2024/04/05 10:07:14;;;;;;;4.35;1.30;;;;;;;20.82;69.41;100013.22;7398633;19;20355;-77
2024/04/05 10:09:41;;;;;;;8.38;1.88;;;;;;;20.83;67.39;100021.13;7390911;19;20471;-75
2024/04/05 10:12:16;;;;;;;5.57;2.20;;;;;;;20.80;67.88;100020.56;7390222;19;20022;-76
2024/04/05 10:14:57;;;;;;;6.05;2.00;;;;;;;20.39;66.80;99968.88;7392244;19;20010;-76
2024/04/05 10:17:27;;;;;;;3.00;1.17;;;;;;;20.63;65.12;100009.56;7394735;19;20041;-77
2024/04/05 10:20:07;;;;;;;3.38;1.40;;;;;;;20.77;66.30;100024.44;7385965;19;20029;-77
2024/04/05 10:22:33;;;;;;;4.50;1.45;;;;;;;20.76;63.48;100006.59;7390340;19;20039;-76
2024/04/05 10:25:00;;;;;;;4.30;1.50;;;;;;;20.47;63.81;99963.59;7390009;19;20015;-76
2024/04/05 10:27:27;;;;;;;5.72;1.60;;;;;;;20.81;63.14;100025.81;7391509;19;20011;-75
2024/04/05 10:30:11;;;;;;;6.50;1.85;;;;;;;20.91;62.57;99996.19;7388090;19;20034;-75
2024/04/05 10:32:39;;;;;;;6.15;2.42;;;;;;;21.12;62.75;100002.19;7394638;19;20006;-75
2024/04/05 10:35:09;;;;;;;6.07;1.73;;;;;;;21.29;61.97;99998.72;7401981;19;20014;-75
2024/04/05 10:37:38;;;;;;;3.80;1.55;;;;;;;21.39;62.31;100000.53;7396238;19;20007;-77
2024/04/05 10:40:13;;;;;;;2.42;1.35;;;;;;;21.31;63.30;99972.50;7395405;19;20021;-75
2024/04/05 10:42:41;;;;;;;3.40;1.38;;;;;;;21.32;62.07;99982.28;7394572;19;20017;-75
2024/04/05 10:45:07;;;;;;;5.60;1.63;;;;;;;21.19;61.96;99956.66;7390166;19;20017;-75
2024/04/05 10:47:35;;;;;;;3.45;1.30;;;;;;;20.98;62.58;99927.28;7392262;19;20704;-75
2024/04/05 10:50:06;;;;;;;3.35;1.10;;;;;;;20.91;61.21;99951.28;7384486;19;20037;-77
2024/04/05 10:52:36;;;;;;;3.55;1.48;;;;;;;21.13;63.14;100011.94;7388036;19;20156;-75
2024/04/05 10:55:12;;;;;;;5.35;1.30;;;;;;;21.00;62.87;99973.75;7339350;19;20018;-75
2024/04/05 10:57:39;;;;;;;4.40;1.30;;;;;;;21.09;62.18;99967.50;7386391;19;20006;-75
2024/04/05 11:00:11;;;;;;;2.75;1.05;;;;;;;20.98;61.73;99965.84;6307065;19;15037905;-76
2024/04/05 11:02:42;;;;;;;3.13;1.10;;;;;;;21.13;62.45;99985.03;7386433;19;20007;-75
2024/04/05 11:05:10;;;;;;;2.78;1.30;;;;;;;20.81;61.75;99918.16;7383937;19;20460;-76
2024/04/05 11:07:45;;;;;;;2.97;1.38;;;;;;;20.99;61.49;99937.91;7385270;19;20018;-77
2024/04/05 11:10:18;;;;;;;2.42;1.55;;;;;;;20.96;61.61;99945.44;7380835;19;20007;-77
2024/04/05 11:12:48;;;;;;;4.05;1.30;;;;;;;20.86;61.82;99944.66;7390485;19;20022;-74
2024/04/05 11:15:18;;;;;;;3.20;1.52;;;;;;;20.64;63.03;99918.94;7402286;19;20006;-77
2024/04/05 11:17:46;;;;;;;6.63;1.63;;;;;;;20.79;64.30;99947.06;7407617;19;20029;-75